createdAt,value
2023-02-13T00:00:51.231Z,10.42
2023-02-13T00:01:51.172Z,10.41
2023-02-13T00:02:51.166Z,10.44
2023-02-13T00:03:51.203Z,10.49
2023-02-13T00:04:51.160Z,10.46
2023-02-13T00:05:51.135Z,10.51
2023-02-13T00:06:51.111Z,10.40
2023-02-13T00:07:51.143Z,10.41
2023-02-13T00:08:51.118Z,10.38
2023-02-13T00:09:51.087Z,10.41
2023-02-13T00:10:51.125Z,10.41
2023-02-13T00:11:51.086Z,10.34
2023-02-13T00:12:51.055Z,10.42
2023-02-13T00:13:51.070Z,10.35
2023-02-13T00:14:51.067Z,10.41
2023-02-13T00:15:51.094Z,10.41
2023-02-13T00:16:51.011Z,10.41
2023-02-13T00:17:50.998Z,10.38
2023-02-13T00:18:51.053Z,10.40
2023-02-13T00:19:50.969Z,10.41
2023-02-13T00:20:51.002Z,10.31
2023-02-13T00:21:50.952Z,10.38
2023-02-13T00:22:50.943Z,10.41
2023-02-13T00:23:50.977Z,10.40
2023-02-13T00:24:50.929Z,10.48
2023-02-13T00:25:50.919Z,10.51
2023-02-13T00:26:50.905Z,10.49
2023-02-13T00:27:50.895Z,10.49
2023-02-13T00:28:50.872Z,10.51
2023-02-13T00:29:50.914Z,10.48
2023-02-13T00:30:50.972Z,10.54
2023-02-13T00:31:50.986Z,10.46
2023-02-13T00:32:50.834Z,10.57
2023-02-13T00:33:50.830Z,10.46
2023-02-13T00:34:50.837Z,10.54
2023-02-13T00:35:50.792Z,10.48
2023-02-13T00:36:50.794Z,10.42
2023-02-13T00:37:50.790Z,10.42
2023-02-13T00:38:50.770Z,10.35
2023-02-13T00:39:50.747Z,10.42
2023-02-13T00:40:50.778Z,10.38
2023-02-13T00:41:50.765Z,10.37
2023-02-13T00:42:50.731Z,10.38
2023-02-13T00:43:50.705Z,10.37
2023-02-13T00:44:50.747Z,10.44
2023-02-13T00:45:50.714Z,10.34
2023-02-13T00:46:50.738Z,10.34
2023-02-13T00:47:50.673Z,10.34
2023-02-13T00:48:50.660Z,10.34
2023-02-13T00:49:50.646Z,10.35
2023-02-13T00:50:50.663Z,10.34
2023-02-13T00:51:50.651Z,10.31
2023-02-13T00:52:50.618Z,10.25
2023-02-13T00:53:50.599Z,10.35
2023-02-13T00:54:50.618Z,10.28
2023-02-13T00:55:50.582Z,10.23
2023-02-13T00:56:50.567Z,10.38
2023-02-13T00:57:50.556Z,10.26
2023-02-13T00:58:50.581Z,10.25
2023-02-13T00:59:51.148Z,10.28
2023-02-13T01:00:50.526Z,10.31
2023-02-13T01:01:50.590Z,10.33
2023-02-13T01:02:50.529Z,10.23
2023-02-13T01:03:50.568Z,10.26
2023-02-13T01:04:50.481Z,10.26
2023-02-13T01:05:50.472Z,10.28
2023-02-13T01:06:50.489Z,10.33
2023-02-13T01:07:50.462Z,10.30
2023-02-13T01:08:50.438Z,10.35
2023-02-13T01:09:50.433Z,10.33
2023-02-13T01:10:50.421Z,10.23
2023-02-13T01:11:50.443Z,10.38
2023-02-13T01:12:50.406Z,10.30
2023-02-13T01:13:50.424Z,10.37
2023-02-13T01:14:50.383Z,10.41
2023-02-13T01:15:50.415Z,10.40
2023-02-13T01:16:50.355Z,10.37
2023-02-13T01:17:50.364Z,10.31
2023-02-13T01:18:50.379Z,10.25
2023-02-13T01:19:50.328Z,10.33
2023-02-13T01:20:50.328Z,10.23
2023-02-13T01:21:50.310Z,10.38
2023-02-13T01:22:50.291Z,10.28
2023-02-13T01:23:50.290Z,10.40
2023-02-13T01:24:50.307Z,10.30
2023-02-13T01:25:50.258Z,10.35
2023-02-13T01:26:50.261Z,10.37
2023-02-13T01:27:50.244Z,10.40
2023-02-13T01:28:50.228Z,10.40
2023-02-13T01:29:50.212Z,10.37
2023-02-13T01:30:50.294Z,10.31
2023-02-13T01:31:50.274Z,10.40
2023-02-13T01:33:04.801Z,10.28
2023-02-13T01:33:50.174Z,10.31
2023-02-13T01:34:50.168Z,10.28
2023-02-13T01:35:50.191Z,10.26
2023-02-13T01:36:50.166Z,10.33
2023-02-13T01:37:50.138Z,10.23
2023-02-13T01:38:50.161Z,10.35
2023-02-13T01:39:50.117Z,10.38
2023-02-13T01:40:50.096Z,10.40
2023-02-13T01:41:50.102Z,10.40
2023-02-13T01:42:50.074Z,10.37
2023-02-13T01:43:50.081Z,10.40
2023-02-13T01:44:50.089Z,10.38
2023-02-13T01:45:50.039Z,10.44
2023-02-13T01:46:50.088Z,10.42
2023-02-13T01:47:50.027Z,10.41
2023-02-13T01:48:50.047Z,10.40
2023-02-13T01:49:50.018Z,10.41
2023-02-13T01:54:21.087Z,10.48
2023-02-13T01:55:17.846Z,10.51
2023-02-13T01:56:17.837Z,10.44
2023-02-13T01:57:17.825Z,10.51
2023-02-13T01:58:17.808Z,10.48
2023-02-13T01:59:17.816Z,10.42
2023-02-13T02:00:17.810Z,10.48
2023-02-13T02:01:17.838Z,10.44
2023-02-13T02:02:17.906Z,10.48
2023-02-13T02:03:17.801Z,10.42
2023-02-13T02:04:17.784Z,10.37
2023-02-13T02:05:17.750Z,10.42
2023-02-13T02:06:17.720Z,10.38
2023-02-13T02:07:17.733Z,10.28
2023-02-13T02:08:17.699Z,10.42
2023-02-13T02:09:17.683Z,10.41
2023-02-13T02:21:53.565Z,10.22
2023-02-13T02:22:50.874Z,10.22
2023-02-13T02:23:50.836Z,10.22
2023-02-13T02:24:50.827Z,10.20
2023-02-13T02:25:50.802Z,10.25
2023-02-13T02:26:50.827Z,10.19
2023-02-13T02:27:50.844Z,10.26
2023-02-13T02:28:50.789Z,10.22
2023-02-13T02:29:50.772Z,10.22
2023-02-13T02:30:50.866Z,10.28
2023-02-13T02:31:50.854Z,10.33
2023-02-13T02:32:50.752Z,10.23
2023-02-13T02:33:50.723Z,10.26
2023-02-13T02:34:50.715Z,10.26
2023-02-13T02:35:50.697Z,10.25
2023-02-13T02:36:50.683Z,10.25
2023-02-13T02:37:50.716Z,10.19
2023-02-13T02:38:50.740Z,10.17
2023-02-13T02:39:50.655Z,10.19
2023-02-13T02:40:50.648Z,10.20
2023-02-13T02:41:50.637Z,10.19
2023-02-13T02:42:50.644Z,10.15
2023-02-13T02:43:50.674Z,10.13
2023-02-13T02:44:50.602Z,10.23
2023-02-13T02:45:50.595Z,10.19
2023-02-13T02:46:50.611Z,10.28
2023-02-13T02:47:50.582Z,10.19
2023-02-13T02:49:01.584Z,10.16
2023-02-13T02:49:50.541Z,10.30
2023-02-13T02:50:50.564Z,10.19
2023-02-13T02:51:50.513Z,10.25
2023-02-13T02:52:50.514Z,10.26
2023-02-13T02:53:50.544Z,10.13
2023-02-13T02:54:50.492Z,10.31
2023-02-13T02:55:50.472Z,10.23
2023-02-13T02:56:50.499Z,10.13
2023-02-13T02:57:50.457Z,10.16
2023-02-13T02:58:50.445Z,10.17
2023-02-13T02:59:50.457Z,10.13
2023-02-13T03:00:50.452Z,10.02
2023-02-13T03:01:50.418Z,9.98
2023-02-13T03:02:50.404Z,10.04
2023-02-13T03:03:50.463Z,10.01
2023-02-13T03:04:50.404Z,10.02
2023-02-13T03:05:50.364Z,10.09
2023-02-13T03:06:50.369Z,10.05
2023-02-13T03:07:50.351Z,10.01
2023-02-13T03:08:50.339Z,10.02
2023-02-13T03:09:50.358Z,10.07
2023-02-13T03:10:50.341Z,10.02
2023-02-13T03:11:50.322Z,9.99
2023-02-13T03:12:50.296Z,10.02
2023-02-13T03:13:50.279Z,10.15
2023-02-13T03:14:50.278Z,10.07
2023-02-13T03:15:50.278Z,10.15
2023-02-13T03:16:50.251Z,10.04
2023-02-13T03:17:50.241Z,10.09
2023-02-13T03:18:50.257Z,10.09
2023-02-13T03:19:50.213Z,10.09
2023-02-13T03:20:50.200Z,9.98
2023-02-13T03:21:50.194Z,10.10
2023-02-13T03:22:50.224Z,10.13
2023-02-13T03:23:50.177Z,10.07
2023-02-13T03:24:50.158Z,10.02
2023-02-13T03:25:50.178Z,10.04
2023-02-13T03:26:50.334Z,10.04
2023-02-13T03:27:50.124Z,10.02
2023-02-13T03:28:50.143Z,10.12
2023-02-13T03:29:50.141Z,10.05
2023-02-13T03:30:50.129Z,9.99
2023-02-13T03:31:50.137Z,10.09
2023-02-13T03:32:50.080Z,10.01
2023-02-13T03:33:50.063Z,9.99
2023-02-13T03:34:50.059Z,10.04
2023-02-13T03:35:50.068Z,10.05
2023-02-13T03:36:50.036Z,9.99
2023-02-13T03:37:50.030Z,9.98
2023-02-13T03:38:50.048Z,10.04
2023-02-13T03:39:50.031Z,10.01
2023-02-13T03:40:49.982Z,10.02
2023-02-13T03:41:50.024Z,9.99
2023-02-13T03:42:49.977Z,10.01
2023-02-13T03:43:49.983Z,10.09
2023-02-13T03:44:49.973Z,10.05
2023-02-13T03:45:49.995Z,10.10
2023-02-13T03:46:49.918Z,10.10
2023-02-13T03:47:49.918Z,10.05
2023-02-13T03:48:50.597Z,10.04
2023-02-13T03:49:49.896Z,10.04
2023-02-13T03:50:49.915Z,9.99
2023-02-13T03:51:49.876Z,9.99
2023-02-13T03:52:49.857Z,10.07
2023-02-13T03:53:49.847Z,10.09
2023-02-13T03:54:49.861Z,10.07
2023-02-13T03:55:49.822Z,10.04
2023-02-13T03:56:49.822Z,10.04
2023-02-13T03:57:49.826Z,10.07
2023-02-13T03:58:49.796Z,10.07
2023-02-13T03:59:49.814Z,10.01
2023-02-13T04:00:49.923Z,9.98
2023-02-13T04:01:49.758Z,10.07
2023-02-13T04:02:49.742Z,10.05
2023-02-13T04:03:49.733Z,9.99
2023-02-13T04:04:49.750Z,9.99
2023-02-13T04:05:49.758Z,10.09
2023-02-13T04:06:49.732Z,10.01
2023-02-13T04:07:49.707Z,10.09
2023-02-13T04:08:49.696Z,10.10
2023-02-13T04:09:49.672Z,10.07
2023-02-13T04:10:49.704Z,9.95
2023-02-13T04:11:49.654Z,10.01
2023-02-13T04:12:49.638Z,9.97
2023-02-13T04:13:49.657Z,10.01
2023-02-13T04:14:49.624Z,9.97
2023-02-13T04:15:49.608Z,9.98
2023-02-13T04:16:49.657Z,10.05
2023-02-13T04:17:49.588Z,9.95
2023-02-13T04:18:49.614Z,9.98
2023-02-13T04:19:49.577Z,10.10
2023-02-13T04:20:49.584Z,10.02
2023-02-13T04:21:49.619Z,9.97
2023-02-13T04:22:49.561Z,9.97
2023-02-13T04:23:49.550Z,9.91
2023-02-13T04:24:49.519Z,9.97
2023-02-13T04:25:49.508Z,9.86
2023-02-13T04:26:49.492Z,9.99
2023-02-13T04:27:49.517Z,9.86
2023-02-13T04:28:49.475Z,9.98
2023-02-13T04:29:49.481Z,9.86
2023-02-13T04:30:49.595Z,9.87
2023-02-13T04:31:49.565Z,9.86
2023-02-13T04:32:49.434Z,9.91
2023-02-13T04:33:49.449Z,9.84
2023-02-13T04:34:49.433Z,9.77
2023-02-13T04:35:49.408Z,9.83
2023-02-13T04:36:49.382Z,9.86
2023-02-13T04:37:49.371Z,9.84
2023-02-13T04:38:49.376Z,9.80
2023-02-13T04:39:49.383Z,9.77
2023-02-13T04:40:49.351Z,9.82
2023-02-13T04:41:49.329Z,9.80
2023-02-13T04:42:49.326Z,9.80
2023-02-13T04:43:49.340Z,9.79
2023-02-13T04:44:49.306Z,9.83
2023-02-13T04:45:49.349Z,9.82
2023-02-13T04:46:49.295Z,9.82
2023-02-13T04:47:49.278Z,9.79
2023-02-13T04:48:49.292Z,9.84
2023-02-13T04:49:49.285Z,9.87
2023-02-13T04:50:49.247Z,9.87
2023-02-13T04:51:49.240Z,9.92
2023-02-13T04:52:49.220Z,9.92
2023-02-13T04:53:49.211Z,9.89
2023-02-13T04:54:49.198Z,9.86
2023-02-13T04:55:49.209Z,9.92
2023-02-13T04:56:49.172Z,9.86
2023-02-13T04:57:49.160Z,9.84
2023-02-13T04:58:49.183Z,9.91
2023-02-13T04:59:49.136Z,9.84
2023-02-13T05:00:49.157Z,9.82
2023-02-13T05:01:49.252Z,9.84
2023-02-13T05:02:49.113Z,9.92
2023-02-13T05:03:49.102Z,9.84
2023-02-13T05:04:49.196Z,9.82
2023-02-13T05:05:49.073Z,9.91
2023-02-13T05:06:49.076Z,9.92
2023-02-13T05:07:49.062Z,9.87
2023-02-13T05:08:49.046Z,9.84
2023-02-13T05:09:49.034Z,9.87
2023-02-13T05:10:49.064Z,9.98
2023-02-13T05:11:49.047Z,10.01
2023-02-13T05:12:49.009Z,9.98
2023-02-13T05:13:48.997Z,9.87
2023-02-13T05:14:48.984Z,9.98
2023-02-13T05:15:49.014Z,9.84
2023-02-13T05:16:48.952Z,9.92
2023-02-13T05:17:48.990Z,9.94
2023-02-13T05:18:48.939Z,9.84
2023-02-13T05:19:48.922Z,9.83
2023-02-13T05:20:48.939Z,9.91
2023-02-13T05:21:48.914Z,9.83
2023-02-13T05:22:48.921Z,9.86
2023-02-13T05:23:48.875Z,9.86
2023-02-13T05:24:48.901Z,10.01
2023-02-13T05:25:48.859Z,9.95
2023-02-13T05:26:48.851Z,9.95
2023-02-13T05:27:48.840Z,9.99
2023-02-13T05:28:48.833Z,10.01
2023-02-13T05:29:48.834Z,9.95
2023-02-13T05:30:48.882Z,9.98
2023-02-13T05:31:48.964Z,9.86
2023-02-13T05:32:48.797Z,9.86
2023-02-13T05:33:48.848Z,9.87
2023-02-13T05:34:48.820Z,9.89
2023-02-13T05:35:48.755Z,9.84
2023-02-13T05:36:48.761Z,9.83
2023-02-13T05:37:48.735Z,9.80
2023-02-13T05:38:48.728Z,9.91
2023-02-13T05:39:49.633Z,9.92
2023-02-13T05:40:48.704Z,9.83
2023-02-13T05:41:48.696Z,9.82
2023-02-13T05:42:48.676Z,9.92
2023-02-13T05:43:48.666Z,9.84
2023-02-13T05:44:48.668Z,9.89
2023-02-13T05:45:48.679Z,9.84
2023-02-13T05:46:48.662Z,9.82
2023-02-13T05:47:48.624Z,9.87
2023-02-13T05:48:48.611Z,9.92
2023-02-13T05:49:48.630Z,10.01
2023-02-13T05:50:48.610Z,9.86
2023-02-13T05:51:48.592Z,9.86
2023-02-13T05:52:48.613Z,9.86
2023-02-13T05:53:48.560Z,9.97
2023-02-13T05:54:48.596Z,9.84
2023-02-13T05:55:48.553Z,9.86
2023-02-13T05:56:48.562Z,9.98
2023-02-13T05:57:48.522Z,9.97
2023-02-13T05:58:48.511Z,9.95
2023-02-13T05:59:48.525Z,10.01
2023-02-13T06:00:48.492Z,9.86
2023-02-13T06:01:48.516Z,9.89
2023-02-13T06:02:48.508Z,9.87
2023-02-13T06:03:48.537Z,9.87
2023-02-13T06:04:48.431Z,9.87
2023-02-13T06:05:48.454Z,9.89
2023-02-13T06:06:48.426Z,9.80
2023-02-13T06:07:48.404Z,9.83
2023-02-13T06:08:48.393Z,9.83
2023-02-13T06:09:48.421Z,9.72
2023-02-13T06:10:48.376Z,9.87
2023-02-13T06:11:48.408Z,9.79
2023-02-13T06:12:48.364Z,9.83
2023-02-13T06:13:48.360Z,9.74
2023-02-13T06:14:48.347Z,9.77
2023-02-13T06:15:48.390Z,9.83
2023-02-13T06:16:48.334Z,9.77
2023-02-13T06:17:48.303Z,9.79
2023-02-13T06:18:48.294Z,9.80
2023-02-13T06:19:48.286Z,9.87
2023-02-13T06:20:48.266Z,9.89
2023-02-13T06:21:48.303Z,9.89
2023-02-13T06:22:48.274Z,9.89
2023-02-13T06:23:48.249Z,9.92
2023-02-13T06:24:48.232Z,9.89
2023-02-13T06:25:48.217Z,9.89
2023-02-13T06:26:48.219Z,9.89
2023-02-13T06:27:48.191Z,9.87
2023-02-13T06:28:48.182Z,9.84
2023-02-13T06:29:48.173Z,9.92
2023-02-13T06:30:48.272Z,9.97
2023-02-13T06:31:48.302Z,9.95
2023-02-13T06:32:48.135Z,9.99
2023-02-13T06:33:48.165Z,9.95
2023-02-13T06:34:48.113Z,9.97
2023-02-13T06:35:48.104Z,9.86
2023-02-13T06:36:48.139Z,9.83
2023-02-13T06:37:48.108Z,9.91
2023-02-13T06:38:48.083Z,9.86
2023-02-13T06:39:48.058Z,9.97
2023-02-13T06:40:48.063Z,9.89
2023-02-13T06:41:48.054Z,9.89
2023-02-13T06:42:48.061Z,9.89
2023-02-13T06:44:09.718Z,9.84
2023-02-13T06:44:48.065Z,9.87
2023-02-13T06:45:48.006Z,9.84
2023-02-13T06:46:48.047Z,9.87
2023-02-13T06:47:48.014Z,9.84
2023-02-13T06:48:47.970Z,9.86
2023-02-13T06:49:47.958Z,9.79
2023-02-13T06:50:47.948Z,9.89
2023-02-13T06:51:47.930Z,9.83
2023-02-13T06:52:47.945Z,9.79
2023-02-13T06:53:47.961Z,9.77
2023-02-13T06:54:48.349Z,9.87
2023-02-13T06:55:47.886Z,9.79
2023-02-13T06:56:47.880Z,9.84
2023-02-13T06:57:47.863Z,9.80
2023-02-13T06:58:47.901Z,9.83
2023-02-13T06:59:47.845Z,9.83
2023-02-13T07:00:47.927Z,9.76
2023-02-13T07:01:47.827Z,9.84
2023-02-13T07:02:47.833Z,9.84
2023-02-13T07:03:47.817Z,9.82
2023-02-13T07:04:47.819Z,9.80
2023-02-13T07:05:47.788Z,9.86
2023-02-13T07:06:47.805Z,9.86
2023-02-13T07:07:47.763Z,9.91
2023-02-13T07:08:47.757Z,9.87
2023-02-13T07:09:47.754Z,9.91
2023-02-13T07:10:47.745Z,9.87
2023-02-13T07:11:47.719Z,9.87
2023-02-13T07:13:03.740Z,9.98
2023-02-13T07:13:48.752Z,9.98
2023-02-13T07:14:47.720Z,9.82
2023-02-13T07:15:47.720Z,9.79
2023-02-13T07:16:47.676Z,9.77
2023-02-13T07:17:47.660Z,9.80
2023-02-13T07:18:47.653Z,9.84
2023-02-13T07:19:47.635Z,9.89
2023-02-13T07:20:47.674Z,9.86
2023-02-13T07:21:47.608Z,9.98
2023-02-13T07:22:47.609Z,9.97
2023-02-13T07:23:47.584Z,10.01
2023-02-13T07:24:47.623Z,10.16
2023-02-13T07:25:47.616Z,10.25
2023-02-13T07:26:47.581Z,10.30
2023-02-13T07:27:47.554Z,10.23
2023-02-13T07:28:47.544Z,10.28
2023-02-13T07:29:47.568Z,10.30
2023-02-13T07:30:47.637Z,10.40
2023-02-13T07:31:47.652Z,10.33
2023-02-13T07:32:47.504Z,10.41
2023-02-13T07:33:47.476Z,10.48
2023-02-13T07:35:00.928Z,10.44
2023-02-13T07:35:48.495Z,10.46
2023-02-13T07:36:47.451Z,10.33
2023-02-13T07:37:47.448Z,10.40
2023-02-13T07:38:47.434Z,10.26
2023-02-13T07:39:47.417Z,10.17
2023-02-13T07:40:47.438Z,10.10
2023-02-13T07:41:47.456Z,10.10
2023-02-13T07:42:47.386Z,10.07
2023-02-13T07:43:47.379Z,10.01
2023-02-13T07:44:47.365Z,10.05
2023-02-13T07:45:47.365Z,9.99
2023-02-13T07:46:47.424Z,9.99
2023-02-13T07:47:47.381Z,10.04
2023-02-13T07:48:47.326Z,9.95
2023-02-13T07:49:47.355Z,10.05
2023-02-13T07:50:47.307Z,10.07
2023-02-13T07:51:47.302Z,10.02
2023-02-13T07:52:47.314Z,10.02
2023-02-13T07:53:47.351Z,10.07
2023-02-13T07:54:47.809Z,9.99
2023-02-13T07:55:47.258Z,10.09
2023-02-13T07:56:47.253Z,10.16
2023-02-13T07:57:47.288Z,10.16
2023-02-13T07:58:47.227Z,10.09
2023-02-13T07:59:47.211Z,10.17
2023-02-13T08:00:47.198Z,10.25
2023-02-13T08:01:47.323Z,10.22
2023-02-13T08:02:47.190Z,10.22
2023-02-13T08:03:47.211Z,10.25
2023-02-13T08:04:47.157Z,10.28
2023-02-13T08:05:47.140Z,10.26
2023-02-13T08:06:47.129Z,10.26
2023-02-13T08:07:47.125Z,10.28
2023-02-13T08:08:47.109Z,10.31
2023-02-13T08:09:47.139Z,10.25
2023-02-13T08:10:47.086Z,10.19
2023-02-13T08:11:47.077Z,10.25
2023-02-13T08:12:47.069Z,10.10
2023-02-13T08:13:47.100Z,10.09
2023-02-13T08:14:47.052Z,10.07
2023-02-13T08:15:47.031Z,10.02
2023-02-13T08:16:47.084Z,10.02
2023-02-13T08:17:47.047Z,10.13
2023-02-13T08:18:47.721Z,10.04
2023-02-13T08:19:47.001Z,10.07
2023-02-13T08:20:46.996Z,10.13
2023-02-13T08:21:46.964Z,10.13
2023-02-13T08:22:46.997Z,10.13
2023-02-13T08:23:47.028Z,10.19
2023-02-13T08:24:46.933Z,10.17
2023-02-13T08:25:46.948Z,10.22
2023-02-13T08:26:47.624Z,10.26
2023-02-13T08:27:46.894Z,10.28
2023-02-13T08:28:46.884Z,10.30
2023-02-13T08:29:47.084Z,10.30
2023-02-13T08:30:46.948Z,10.28
2023-02-13T08:31:46.918Z,10.26
2023-02-13T08:32:54.237Z,10.28
2023-02-13T08:33:48.019Z,10.26
2023-02-13T08:34:46.877Z,10.19
2023-02-13T08:35:46.807Z,10.28
2023-02-13T08:36:46.799Z,10.28
2023-02-13T08:37:47.717Z,10.23
2023-02-13T08:38:46.785Z,10.28
2023-02-13T08:39:46.785Z,10.25
2023-02-13T08:40:46.907Z,10.30
2023-02-13T08:41:46.792Z,10.15
2023-02-13T08:42:46.753Z,10.16
2023-02-13T08:43:46.736Z,10.16
2023-02-13T08:44:46.722Z,10.09
2023-02-13T08:45:46.843Z,10.07
2023-02-13T08:46:46.691Z,10.10
2023-02-13T08:47:46.692Z,10.20
2023-02-13T08:48:46.683Z,10.12
2023-02-13T08:49:46.690Z,10.10
2023-02-13T08:50:46.649Z,10.23
2023-02-13T08:51:46.656Z,10.16
2023-02-13T08:52:46.699Z,10.25
2023-02-13T08:53:46.669Z,10.26
2023-02-13T08:54:46.623Z,10.13
2023-02-13T08:55:46.626Z,10.19
2023-02-13T08:56:46.615Z,10.22
2023-02-13T08:57:46.580Z,10.13
2023-02-13T08:58:46.616Z,10.31
2023-02-13T08:59:46.576Z,10.28
2023-02-13T09:00:46.545Z,10.23
2023-02-13T09:01:46.579Z,10.19
2023-02-13T09:02:46.555Z,10.22
2023-02-13T09:03:47.125Z,10.22
2023-02-13T09:04:46.495Z,10.16
2023-02-13T09:05:46.540Z,10.10
2023-02-13T09:06:47.397Z,10.10
2023-02-13T09:07:46.490Z,10.22
2023-02-13T09:08:46.461Z,10.17
2023-02-13T09:09:46.449Z,10.12
2023-02-13T09:10:46.440Z,10.16
2023-02-13T09:11:46.436Z,10.13
2023-02-13T09:12:46.436Z,10.19
2023-02-13T09:13:47.181Z,10.23
2023-02-13T09:14:46.388Z,10.25
2023-02-13T09:15:46.384Z,10.30
2023-02-13T09:16:46.390Z,10.33
2023-02-13T09:17:46.380Z,10.30
2023-02-13T09:18:46.375Z,10.31
2023-02-13T09:19:46.346Z,10.40
2023-02-13T09:20:46.514Z,10.44
2023-02-13T09:21:46.330Z,10.23
2023-02-13T09:22:46.311Z,10.30
2023-02-13T09:23:46.330Z,10.28
2023-02-13T09:24:46.286Z,10.25
2023-02-13T09:25:46.302Z,10.23
2023-02-13T09:26:46.279Z,10.23
2023-02-13T09:27:46.258Z,10.22
2023-02-13T09:28:46.363Z,10.22
2023-02-13T09:29:46.268Z,10.23
2023-02-13T09:30:46.271Z,10.30
2023-02-13T09:31:46.340Z,10.17
2023-02-13T09:32:46.211Z,10.13
2023-02-13T09:33:48.096Z,10.15
2023-02-13T09:34:46.243Z,10.17
2023-02-13T09:35:46.205Z,10.17
2023-02-13T09:36:46.195Z,10.07
2023-02-13T09:37:46.236Z,10.01
2023-02-13T09:38:46.160Z,9.87
2023-02-13T09:39:46.157Z,9.86
2023-02-13T09:40:46.160Z,9.77
2023-02-13T09:41:46.132Z,9.80
2023-02-13T09:42:46.105Z,9.76
2023-02-13T09:43:46.167Z,9.77
2023-02-13T09:44:46.092Z,9.79
2023-02-13T09:45:46.079Z,9.77
2023-02-13T09:46:46.203Z,9.92
2023-02-13T09:47:46.069Z,9.89
2023-02-13T09:48:46.073Z,9.97
2023-02-13T09:49:46.061Z,9.99
2023-02-13T09:50:46.356Z,10.02
2023-02-13T09:51:46.049Z,10.04
2023-02-13T09:52:46.007Z,9.98
2023-02-13T09:53:45.982Z,10.07
2023-02-13T09:54:46.040Z,10.13
2023-02-13T09:55:45.977Z,10.09
2023-02-13T09:56:45.954Z,10.17
2023-02-13T09:57:45.994Z,10.07
2023-02-13T09:58:45.944Z,10.04
2023-02-13T09:59:45.934Z,10.07
2023-02-13T10:00:46.912Z,10.02
2023-02-13T10:01:46.833Z,9.99
2023-02-13T10:02:45.898Z,10.05
2023-02-13T10:03:45.878Z,10.09
2023-02-13T10:04:45.886Z,10.13
2023-02-13T10:05:45.904Z,10.16
2023-02-13T10:06:45.854Z,10.12
2023-02-13T10:07:45.834Z,10.16
2023-02-13T10:08:45.818Z,9.98
2023-02-13T10:09:45.849Z,10.02
2023-02-13T10:10:45.812Z,10.05
2023-02-13T10:11:45.789Z,10.04
2023-02-13T10:12:45.783Z,10.04
2023-02-13T10:13:45.822Z,10.13
2023-02-13T10:14:45.811Z,10.19
2023-02-13T10:15:45.961Z,10.20
2023-02-13T10:16:45.742Z,10.23
2023-02-13T10:17:45.756Z,10.12
2023-02-13T10:18:46.668Z,10.15
2023-02-13T10:19:45.752Z,10.20
2023-02-13T10:20:45.692Z,10.25
2023-02-13T10:21:45.716Z,10.19
2023-02-13T10:22:45.692Z,10.17
2023-02-13T10:23:45.667Z,10.16
2023-02-13T10:24:45.692Z,10.20
2023-02-13T10:25:45.663Z,10.09
2023-02-13T10:26:45.767Z,10.15
2023-02-13T10:27:45.659Z,10.19
2023-02-13T10:28:45.791Z,10.16
2023-02-13T10:29:45.635Z,10.33
2023-02-13T10:30:45.684Z,10.25
2023-02-13T10:31:45.724Z,10.28
2023-02-13T10:32:45.602Z,10.34
2023-02-13T10:33:45.605Z,10.33
2023-02-13T10:34:45.587Z,10.41
2023-02-13T10:35:45.560Z,10.46
2023-02-13T10:36:45.561Z,10.48
2023-02-13T10:37:45.528Z,10.53
2023-02-13T10:38:45.508Z,10.54
2023-02-13T10:39:45.510Z,10.59
2023-02-13T10:40:45.481Z,10.61
2023-02-13T10:41:45.482Z,10.57
2023-02-13T10:42:45.501Z,10.67
2023-02-13T10:43:45.461Z,10.69
2023-02-13T10:44:45.433Z,10.57
2023-02-13T10:45:45.449Z,10.56
2023-02-13T10:46:45.478Z,10.60
2023-02-13T10:47:45.516Z,10.60
2023-02-13T10:48:45.405Z,10.54
2023-02-13T10:49:45.393Z,10.59
2023-02-13T10:50:45.389Z,10.60
2023-02-13T10:51:45.363Z,10.51
2023-02-13T10:52:45.396Z,10.51
2023-02-13T10:53:45.351Z,10.54
2023-02-13T10:54:45.339Z,10.57
2023-02-13T10:55:45.319Z,10.53
2023-02-13T10:56:45.312Z,10.53
2023-02-13T10:57:45.318Z,10.56
2023-02-13T10:58:45.321Z,10.54
2023-02-13T10:59:45.288Z,10.61
2023-02-13T11:00:45.277Z,10.74
2023-02-13T11:01:45.328Z,10.72
2023-02-13T11:02:45.288Z,10.67
2023-02-13T11:03:45.256Z,10.68
2023-02-13T11:04:45.245Z,10.63
2023-02-13T11:05:45.224Z,10.68
2023-02-13T11:06:45.228Z,10.63
2023-02-13T11:07:45.196Z,10.68
2023-02-13T11:08:45.197Z,10.69
2023-02-13T11:09:45.179Z,10.74
2023-02-13T11:10:45.161Z,10.87
2023-02-13T11:11:45.225Z,10.84
2023-02-13T11:12:45.156Z,10.82
2023-02-13T11:13:45.128Z,10.76
2023-02-13T11:14:45.128Z,10.75
2023-02-13T11:15:45.171Z,10.81
2023-02-13T11:16:46.873Z,10.87
2023-02-13T11:17:45.672Z,10.84
2023-02-13T11:18:45.083Z,10.87
2023-02-13T11:19:45.138Z,10.84
2023-02-13T11:20:45.060Z,10.89
2023-02-13T11:21:45.132Z,10.90
2023-02-13T11:22:45.125Z,10.90
2023-02-13T11:23:45.127Z,11.02
2023-02-13T11:24:45.151Z,11.08
2023-02-13T11:25:45.027Z,11.05
2023-02-13T11:26:45.190Z,10.99
2023-02-13T11:27:45.045Z,11.02
2023-02-13T11:28:45.079Z,11.00
2023-02-13T11:29:45.003Z,11.07
2023-02-13T11:30:45.019Z,10.97
2023-02-13T11:31:45.176Z,11.02
2023-02-13T11:32:44.957Z,11.07
2023-02-13T11:33:44.948Z,11.10
2023-02-13T11:34:44.937Z,11.04
2023-02-13T11:35:45.175Z,11.00
2023-02-13T11:36:44.949Z,11.04
2023-02-13T11:37:44.894Z,11.00
2023-02-13T11:38:44.886Z,11.07
2023-02-13T11:39:45.676Z,11.04
2023-02-13T11:40:44.882Z,11.04
2023-02-13T11:41:44.893Z,10.99
2023-02-13T11:42:44.865Z,10.97
2023-02-13T11:43:44.833Z,11.07
2023-02-13T11:44:44.816Z,11.07
2023-02-13T11:45:44.806Z,11.12
2023-02-13T11:46:45.028Z,11.08
2023-02-13T11:47:44.835Z,10.96
2023-02-13T11:48:44.764Z,11.10
2023-02-13T11:49:44.762Z,11.10
2023-02-13T11:50:44.763Z,11.02
2023-02-13T11:51:45.683Z,11.02
2023-02-13T11:52:44.796Z,11.04
2023-02-13T11:53:44.720Z,11.02
2023-02-13T11:54:44.680Z,11.00
2023-02-13T11:55:44.694Z,11.07
2023-02-13T11:57:03.322Z,10.99
2023-02-13T11:57:45.685Z,11.02
2023-02-13T11:58:44.737Z,10.97
2023-02-13T11:59:44.638Z,11.08
2023-02-13T12:00:44.632Z,11.04
2023-02-13T12:01:44.641Z,11.04
2023-02-13T12:02:44.681Z,11.10
2023-02-13T12:03:44.678Z,11.04
2023-02-13T12:04:44.592Z,11.12
2023-02-13T12:05:44.587Z,11.15
2023-02-13T12:06:44.574Z,11.14
2023-02-13T12:07:44.564Z,11.14
2023-02-13T12:08:44.587Z,11.12
2023-02-13T12:09:44.551Z,11.15
2023-02-13T12:10:44.549Z,11.17
2023-02-13T12:11:44.535Z,11.02
2023-02-13T12:12:44.489Z,11.04
2023-02-13T12:13:44.533Z,11.07
2023-02-13T12:14:44.500Z,11.04
2023-02-13T12:15:44.508Z,11.07
2023-02-13T12:16:44.533Z,11.02
2023-02-13T12:17:44.451Z,10.99
2023-02-13T12:18:44.553Z,11.07
2023-02-13T12:19:45.299Z,10.99
2023-02-13T12:20:44.463Z,10.97
2023-02-13T12:21:44.437Z,11.02
2023-02-13T12:22:44.417Z,11.11
2023-02-13T12:23:44.409Z,11.04
2023-02-13T12:24:44.415Z,11.07
2023-02-13T12:25:44.368Z,11.12
2023-02-13T12:26:44.784Z,10.99
2023-02-13T12:27:44.424Z,10.90
2023-02-13T12:28:44.464Z,10.86
2023-02-13T12:29:44.337Z,10.89
2023-02-13T12:30:44.324Z,10.92
2023-02-13T12:31:44.429Z,10.89
2023-02-13T12:32:44.349Z,10.84
2023-02-13T12:33:44.291Z,10.89
2023-02-13T12:34:44.263Z,10.82
2023-02-13T12:35:44.259Z,10.89
2023-02-13T12:36:44.245Z,10.84
2023-02-13T12:37:44.273Z,10.82
2023-02-13T12:38:44.512Z,10.86
2023-02-13T12:39:44.206Z,10.78
2023-02-13T12:40:44.212Z,10.79
2023-02-13T12:41:44.192Z,10.89
2023-02-13T12:42:44.190Z,10.87
2023-02-13T12:43:44.194Z,10.99
2023-02-13T12:44:44.222Z,10.99
2023-02-13T12:45:44.208Z,11.00
2023-02-13T12:46:44.133Z,10.99
2023-02-13T12:47:44.134Z,11.07
2023-02-13T12:48:44.125Z,11.02
2023-02-13T12:49:44.138Z,11.02
2023-02-13T12:50:44.117Z,11.00
2023-02-13T12:51:44.115Z,11.10
2023-02-13T12:52:44.139Z,11.11
2023-02-13T12:53:44.079Z,11.15
2023-02-13T12:54:44.057Z,11.17
2023-02-13T12:55:44.041Z,11.19
2023-02-13T12:56:44.020Z,11.19
2023-02-13T12:57:44.010Z,11.18
2023-02-13T12:58:44.016Z,11.25
2023-02-13T12:59:44.029Z,11.19
2023-02-13T13:00:44.021Z,11.11
2023-02-13T13:01:43.987Z,11.17
2023-02-13T13:02:44.012Z,11.11
2023-02-13T13:03:43.954Z,11.12
2023-02-13T13:04:44.010Z,11.15
2023-02-13T13:05:45.206Z,11.11
2023-02-13T13:06:44.009Z,11.11
2023-02-13T13:07:43.912Z,11.14
2023-02-13T13:08:43.936Z,11.12
2023-02-13T13:09:43.891Z,11.12
2023-02-13T13:10:43.884Z,11.14
2023-02-13T13:11:43.874Z,11.14
2023-02-13T13:12:43.846Z,11.14
2023-02-13T13:13:43.850Z,11.18
2023-02-13T13:14:43.850Z,11.11